Station Historical Data
Daily Summary for May 19, 2017 Units:  English    Metric   Both
« Previous Day
Next Day »
Daily Weekly Monthly Yearly Custom
  High: Low: Average:
Temperature: 87.7 °F 70.2 °F 77.4 °F
Dew Point: 69.7 °F 63.8 °F 66.2 °F
Humidity: 88% 50% 70%
Wind Speed: 0.0mph 0.0mph 0mph
Wind Gust: 3.0mph - -
Wind- -
Pressure: 30.12 in 30.00 in -
Precipitation: 0.00 in    
Historical Graphs
 
 
Tabular Data for May 19, 2017
Time Temperature Dew Point Pressure Wind Wind Speed Wind Gust Humidity Rainfall Rate (Hourly) Conditions
00:00 72.6 °F 67.8 °F 30.04 in Calm     85% 0.00 in SCT
00:15 72.6 °F 67.8 °F 30.04 in Calm     85% 0.00 in SCT
00:30 72.5 °F 67.7 °F 30.05 in Calm     85% 0.00 in SCT
00:45 72.3 °F 67.5 °F 30.04 in Calm     85% 0.00 in SCT
01:00 72.2 °F 67.8 °F 30.04 in Calm     86% 0.00 in SCT
01:15 72.0 °F 67.6 °F 30.04 in Calm     86% 0.00 in SCT
01:30 71.9 °F 67.5 °F 30.04 in Calm     86% 0.00 in SCT
01:45 71.5 °F 67.4 °F 30.04 in Calm     87% 0.00 in SCT
02:00 71.4 °F 67.7 °F 30.04 in Calm     88% 0.00 in SCT
02:15 71.3 °F 67.2 °F 30.04 in Calm     87% 0.00 in SCT
02:30 71.1 °F 67.0 °F 30.05 in Calm     87% 0.00 in SCT
02:45 70.9 °F 66.8 °F 30.05 in Calm     87% 0.00 in SCT
03:00 70.9 °F 66.8 °F 30.05 in Calm     87% 0.00 in SCT
03:15 70.8 °F 66.7 °F 30.05 in Calm     87% 0.00 in SCT
03:30 70.9 °F 66.5 °F 30.05 in Calm     86% 0.00 in SCT
03:45 70.2 °F 64.4 °F 30.05 in Calm     82% 0.00 in SCT
04:00 70.2 °F 64.4 °F 30.06 in Calm     82% 0.00 in SCT
04:15 70.2 °F 64.4 °F 30.07 in Calm     82% 0.00 in SCT
04:30 70.2 °F 64.4 °F 30.07 in Calm     82% 0.00 in SCT
04:45 70.2 °F 64.4 °F 30.07 in Calm     82% 0.00 in SCT
05:00 70.2 °F 64.4 °F 30.07 in Calm     82% 0.00 in SCT
05:15 70.2 °F 64.4 °F 30.08 in Calm     82% 0.00 in SCT
05:30 70.2 °F 64.4 °F 30.09 in Calm     82% 0.00 in SCT
05:45 70.2 °F 64.4 °F 30.09 in Calm     82% 0.00 in SCT
06:00 70.2 °F 64.4 °F 30.09 in Calm     82% 0.00 in SCT
06:15 70.2 °F 64.4 °F 30.10 in Calm     82% 0.00 in SCT
06:30 70.2 °F 64.4 °F 30.11 in Calm     82% 0.00 in SCT
06:45 70.2 °F 64.4 °F 30.11 in Calm     82% 0.00 in SCT
07:00 70.2 °F 64.4 °F 30.11 in Calm     82% 0.00 in SCT
07:15 70.2 °F 64.4 °F 30.12 in Calm     82% 0.00 in SCT
07:30 70.2 °F 64.4 °F 30.12 in Calm     82% 0.00 in SCT
07:45 70.2 °F 64.4 °F 30.12 in Calm     82% 0.00 in SCT
08:00 70.2 °F 64.4 °F 30.12 in Calm     82% 0.00 in SCT
08:15 70.2 °F 64.4 °F 30.12 in Calm     82% 0.00 in SCT
08:30 71.1 °F 63.9 °F 30.12 in Calm     78% 0.00 in SCT
08:45 71.6 °F 64.0 °F 30.12 in Calm     77% 0.00 in SCT
09:00 72.1 °F 64.5 °F 30.11 in Calm   1.0 mph 77% 0.00 in SCT
09:15 73.1 °F 64.4 °F 30.10 in Calm     74% 0.00 in SCT
09:30 74.2 °F 63.8 °F 30.12 in Calm   1.0 mph 70% 0.00 in SCT
09:45 75.4 °F 64.9 °F 30.11 in Calm   1.0 mph 70% 0.00 in SCT
10:00 76.9 °F 64.7 °F 30.11 in Calm   1.0 mph 66% 0.00 in SCT
10:15 78.6 °F 65.4 °F 30.11 in Calm   1.0 mph 64% 0.00 in SCT
10:30 80.1 °F 65.9 °F 30.11 in Calm   1.0 mph 62% 0.00 in SCT
10:45 80.3 °F 65.6 °F 30.11 in Calm   1.0 mph 61% 0.00 in SCT
11:00 80.8 °F 65.6 °F 30.11 in Calm   1.0 mph 60% 0.00 in SCT
11:15 81.2 °F 65.5 °F 30.11 in Calm   1.0 mph 59% 0.00 in SCT
11:30 81.0 °F 65.3 °F 30.11 in Calm   2.0 mph 59% 0.00 in SCT
11:45 81.2 °F 66.0 °F 30.11 in Calm   2.0 mph 60% 0.00 in SCT
12:00 81.9 °F 66.2 °F 30.10 in Calm   1.0 mph 59% 0.00 in SCT
12:15 83.6 °F 67.8 °F 30.09 in Calm   1.0 mph 59% 0.00 in SCT
12:30 84.5 °F 67.6 °F 30.09 in Calm   2.0 mph 57% 0.00 in SCT
12:45 84.8 °F 67.8 °F 30.09 in Calm   2.0 mph 57% 0.00 in SCT
13:00 86.7 °F 68.0 °F 30.08 in Calm   2.0 mph 54% 0.00 in SCT
13:15 87.5 °F 67.7 °F 30.08 in Calm   2.0 mph 52% 0.00 in SCT
13:30 87.0 °F 66.7 °F 30.07 in Calm   2.0 mph 51% 0.00 in SCT
13:45 87.7 °F 67.3 °F 30.07 in Calm   3.0 mph 51% 0.00 in SCT
14:00 87.2 °F 66.3 °F 30.07 in Calm   1.0 mph 50% 0.00 in SCT
14:15 87.2 °F 66.9 °F 30.06 in Calm   1.0 mph 51% 0.00 in SCT
14:30 86.6 °F 67.4 °F 30.06 in Calm   2.0 mph 53% 0.00 in SCT
14:45 86.1 °F 68.0 °F 30.05 in Calm     55% 0.00 in SCT
15:00 84.6 °F 68.2 °F 30.05 in Calm   1.0 mph 58% 0.00 in SCT
15:15 84.5 °F 67.1 °F 30.04 in Calm     56% 0.00 in SCT
15:30 84.5 °F 67.6 °F 30.04 in Calm     57% 0.00 in SCT
15:45 83.9 °F 67.5 °F 30.03 in Calm     58% 0.00 in SCT
16:00 82.8 °F 68.4 °F 30.03 in Calm     62% 0.00 in SCT
16:15 82.7 °F 68.8 °F 30.03 in Calm     63% 0.00 in SCT
16:30 81.9 °F 68.5 °F 30.02 in Calm     64% 0.00 in SCT
16:45 81.7 °F 67.9 °F 30.01 in Calm     63% 0.00 in SCT
17:00 81.7 °F 69.7 °F 30.01 in Calm     67% 0.00 in SCT
17:15 81.7 °F 68.8 °F 30.01 in Calm     65% 0.00 in SCT
17:30 81.8 °F 68.8 °F 30.01 in Calm     65% 0.00 in SCT
17:45 82.0 °F 69.5 °F 30.01 in Calm     66% 0.00 in SCT
18:00 82.1 °F 69.6 °F 30.01 in Calm     66% 0.00 in SCT
18:15 81.9 °F 68.5 °F 30.01 in Calm     64% 0.00 in SCT
18:30 82.0 °F 69.1 °F 30.00 in Calm     65% 0.00 in SCT
18:45 82.9 °F 69.0 °F 30.00 in Calm     63% 0.00 in SCT
19:00 83.4 °F 67.1 °F 30.00 in Calm     58% 0.00 in SCT
19:15 83.7 °F 65.8 °F 30.00 in Calm   1.0 mph 55% 0.00 in SCT
19:30 83.4 °F 66.6 °F 30.00 in Calm   1.0 mph 57% 0.00 in SCT
19:45 83.0 °F 66.2 °F 30.01 in Calm     57% 0.00 in SCT
20:00 82.6 °F 66.3 °F 30.01 in Calm   1.0 mph 58% 0.00 in SCT
20:15 82.2 °F 66.0 °F 30.02 in Calm     58% 0.00 in SCT
20:30 81.6 °F 65.9 °F 30.02 in Calm     59% 0.00 in SCT
20:45 80.9 °F 65.2 °F 30.02 in Calm     59% 0.00 in SCT
21:00 79.9 °F 65.2 °F 30.03 in Calm     61% 0.00 in SCT
21:15 79.1 °F 65.0 °F 30.03 in Calm     62% 0.00 in SCT
21:30 78.8 °F 64.7 °F 30.03 in Calm     62% 0.00 in SCT
21:45 78.4 °F 64.3 °F 30.03 in Calm     62% 0.00 in SCT
22:00 77.9 °F 64.3 °F 30.04 in Calm     63% 0.00 in SCT
22:15 77.3 °F 64.6 °F 30.05 in Calm     65% 0.00 in SCT
22:30 77.1 °F 64.9 °F 30.05 in Calm     66% 0.00 in SCT
22:45 76.8 °F 65.0 °F 30.06 in Calm     67% 0.00 in SCT
23:00 76.6 °F 64.8 °F 30.06 in Calm     67% 0.00 in SCT
23:15 76.1 °F 64.8 °F 30.07 in Calm     68% 0.00 in SCT
23:30 75.6 °F 64.7 °F 30.07 in Calm     69% 0.00 in SCT
23:45 75.0 °F 64.5 °F 30.07 in Calm     70% 0.00 in SCT
Piedmont Bend
Compliments of Weather Underground - 2 mb